Airfield :
LOGIN :

Register | Disclaimer

   EN    FR    IT 

 










Legend :    VFR   Marginal VFR   IFR   Intensive IFR   Very Intensive IFR
Visi :
Ceiling :
>= 8 km
>= 3000ft
5 to 8 km
1000 to 3000 ft
1500m to 5 km
500 to 1000 ft
800 to 1500m
200 to 500 ft
< 800m
< 200 ft
Symbols :   Thunderstorms  Fog  Heavy snow  Heavy precipitations  Wind > 20 kt
SIGMETs :     Misc.  Thunderstorms  Icing  Turbulence  Mountain Waves  Volcanic Ashes







- Airport Elevation : -11 ft
- IATA code : AMS


EHAM - Amsterdam Schiphol

CURRENT METAR :
  • 212355Z 08007KT CAVOK 11/06 Q1014 NOSIG

EXPIRED METARs :
  • 212325Z 07006KT CAVOK 12/06 Q1014 NOSIG
  • 212255Z 07005KT CAVOK 12/07 Q1015 NOSIG
  • 212225Z 07006KT CAVOK 12/08 Q1015 NOSIG
  • 212155Z 06006KT CAVOK 12/08 Q1015 NOSIG
  • 212125Z 05007KT CAVOK 13/09 Q1015 NOSIG

TAF TAF EHAM
Valid from the 22 at 00:00 until the 23 at 06:00 UTC


212242Z 2200/2306 06007KT CAVOK
BECMG 2206/2209 11010KT
TEMPO 2211/2221 11013G23KT
No reported NOTAMs for that airfield.



MET'MAP, your aeronautical weather chart ! - Copyright ORBIFLY December 2007 - Disclaimer

ORBIFLY MET'MAP TEAM :

Programming & Development : Alexandra Zaïnal
Concept & Development : Baudouin d'Aumeries
Co-Development & Prog : Marc-Olivier Méhu
Technical & hardware support : Manuel Goepfert

Contact : metmap@orbifly.com




SOURCES & CREDITS :

   NOAA